createdAt,value
2018-04-23T00:00:42.985Z,4.83
2018-04-23T00:03:25.701Z,4.33
2018-04-23T00:05:54.245Z,4.20
2018-04-23T00:08:23.069Z,4.53
2018-04-23T00:10:52.823Z,5.73
2018-04-23T00:13:21.374Z,4.70
2018-04-23T00:15:50.683Z,5.73
2018-04-23T00:18:31.923Z,5.13
2018-04-23T00:21:01.489Z,5.07
2018-04-23T00:23:29.988Z,5.87
2018-04-23T00:25:58.510Z,5.47
2018-04-23T00:28:28.432Z,6.60
2018-04-23T00:30:57.690Z,6.57
2018-04-23T00:33:30.860Z,6.17
2018-04-23T00:35:59.694Z,6.77
2018-04-23T00:38:41.516Z,6.63
2018-04-23T00:41:10.704Z,6.60
2018-04-23T00:43:39.959Z,6.97
2018-04-23T00:46:08.462Z,7.33
2018-04-23T00:48:38.311Z,7.43
2018-04-23T00:51:08.379Z,7.23
2018-04-23T00:53:40.906Z,7.77
2018-04-23T00:56:10.822Z,9.10
2018-04-23T00:58:43.287Z,8.63
2018-04-23T01:01:12.925Z,8.80
2018-04-23T01:03:45.229Z,9.93
2018-04-23T01:06:13.711Z,9.97
2018-04-23T01:08:47.253Z,11.20
2018-04-23T01:11:16.053Z,11.67
2018-04-23T01:13:49.273Z,10.90
2018-04-23T01:16:17.798Z,10.97
2018-04-23T01:19:00.437Z,11.70
2018-04-23T01:21:29.265Z,10.10
2018-04-23T01:23:57.781Z,9.83
2018-04-23T01:26:26.296Z,10.37
2018-04-23T01:28:57.688Z,10.30
2018-04-23T01:31:27.698Z,10.03
2018-04-23T01:33:59.609Z,9.73
2018-04-23T01:36:29.524Z,10.37
2018-04-23T01:39:02.916Z,10.00
2018-04-23T01:41:31.445Z,9.23
2018-04-23T01:44:03.885Z,9.33
2018-04-23T01:46:33.180Z,9.23
2018-04-23T01:49:05.850Z,9.40
2018-04-23T01:51:35.877Z,10.10
2018-04-23T01:54:17.822Z,10.77
2018-04-23T01:56:47.658Z,10.33
2018-04-23T01:59:16.203Z,10.13
2018-04-23T02:01:44.824Z,10.40
2018-04-23T02:04:15.050Z,10.00
2018-04-23T02:06:43.548Z,9.80
2018-04-23T02:09:26.231Z,9.63
2018-04-23T02:11:55.772Z,10.47
2018-04-23T02:14:24.285Z,10.93
2018-04-23T02:16:53.999Z,10.37
2018-04-23T02:19:24.300Z,10.77
2018-04-23T02:21:53.582Z,9.93
2018-04-23T02:24:26.685Z,9.50
2018-04-23T02:26:55.565Z,10.43
2018-04-23T02:29:36.555Z,8.53
2018-04-23T02:32:05.101Z,8.77
2018-04-23T02:47:41.061Z,9.27
2018-04-23T02:50:10.709Z,9.93
2018-04-23T02:52:40.570Z,9.27
2018-04-23T02:55:09.852Z,8.77
2018-04-23T02:57:39.487Z,9.57
2018-04-23T03:00:09.009Z,10.00
2018-04-23T03:18:15.273Z,9.40
2018-04-23T03:20:49.686Z,8.07
2018-04-23T03:23:18.211Z,7.80
2018-04-23T03:28:19.477Z,7.70
2018-04-23T03:30:48.736Z,8.80
2018-04-23T03:33:18.244Z,8.87
2018-04-23T03:35:48.176Z,8.33
2018-04-23T03:38:17.805Z,7.47
2018-04-23T03:40:46.723Z,8.20
2018-04-23T03:43:16.273Z,7.73
2018-04-23T03:45:44.760Z,7.27
2018-04-23T03:48:13.315Z,7.53
2018-04-23T03:50:42.150Z,7.27
2018-04-23T03:53:11.452Z,7.67
2018-04-23T03:55:40.748Z,8.00
2018-04-23T03:58:11.515Z,7.20
2018-04-23T04:00:41.244Z,7.47
2018-04-23T04:03:22.668Z,7.50
2018-04-23T04:05:51.445Z,7.60
2018-04-23T04:08:19.954Z,7.80
2018-04-23T04:10:49.228Z,7.80
2018-04-23T04:13:29.494Z,9.20
2018-04-23T04:17:12.003Z,9.23
2018-04-23T04:19:41.456Z,10.73
2018-04-23T04:22:11.172Z,9.50
2018-04-23T04:24:41.826Z,8.70
2018-04-23T04:27:12.463Z,8.60
2018-04-23T04:29:41.323Z,8.73
2018-04-23T04:32:09.858Z,8.97
2018-04-23T04:34:39.545Z,8.57
2018-04-23T04:37:08.077Z,7.47
2018-04-23T04:39:38.096Z,7.80
2018-04-23T04:42:08.484Z,8.20
2018-04-23T04:44:38.141Z,8.53
2018-04-23T04:47:06.713Z,9.20
2018-04-23T04:49:35.963Z,9.00
2018-04-23T04:52:04.533Z,8.27
2018-04-23T04:54:36.769Z,7.57
2018-04-23T04:57:06.752Z,8.27
2018-04-23T04:59:40.241Z,7.93
2018-04-23T05:02:09.961Z,9.03
2018-04-23T05:04:40.886Z,8.37
2018-04-23T05:07:10.922Z,7.63
2018-04-23T05:09:51.923Z,8.37
2018-04-23T05:12:22.516Z,8.00
2018-04-23T05:14:51.476Z,8.77
2018-04-23T05:17:20.813Z,8.40
2018-04-23T05:19:50.186Z,7.60
2018-04-23T05:22:20.028Z,7.93
2018-04-23T05:24:50.406Z,7.37
2018-04-23T05:27:20.145Z,8.23
2018-04-23T05:29:56.759Z,7.90
2018-04-23T05:32:25.672Z,7.87
2018-04-23T05:34:55.395Z,8.03
2018-04-23T05:37:24.935Z,7.10
2018-04-23T05:39:58.126Z,6.93
2018-04-23T05:42:27.922Z,7.47
2018-04-23T05:45:00.756Z,7.10
2018-04-23T05:47:29.295Z,7.57
2018-04-23T05:50:03.307Z,6.73
2018-04-23T05:52:33.363Z,6.87
2018-04-23T05:55:06.088Z,6.60
2018-04-23T05:57:36.120Z,6.23
2018-04-23T06:00:17.962Z,6.77
2018-04-23T06:02:46.749Z,6.80
2018-04-23T06:05:16.187Z,7.03
2018-04-23T06:07:44.713Z,6.63
2018-04-23T06:10:14.290Z,7.03
2018-04-23T06:12:43.233Z,7.10
2018-04-23T06:15:16.360Z,7.07
2018-04-23T06:17:45.149Z,7.23
2018-04-23T06:20:18.760Z,6.90
2018-04-23T06:22:48.064Z,6.27
2018-04-23T06:25:21.140Z,7.73
2018-04-23T06:27:49.651Z,7.87
2018-04-23T06:30:23.314Z,6.60
2018-04-23T06:32:51.848Z,8.00
2018-04-23T06:35:34.323Z,8.00
2018-04-23T06:38:03.252Z,7.80
2018-04-23T06:40:31.808Z,8.73
2018-04-23T06:43:00.317Z,8.83
2018-04-23T06:45:29.996Z,7.90
2018-04-23T06:47:58.839Z,8.17
2018-04-23T06:50:31.601Z,8.33
2018-04-23T06:53:00.133Z,8.40
2018-04-23T06:55:33.870Z,8.83
2018-04-23T06:58:03.210Z,9.47
2018-04-23T07:00:45.863Z,10.17
2018-04-23T07:03:14.368Z,9.33
2018-04-23T07:05:44.907Z,8.67
2018-04-23T07:08:13.928Z,9.60
2018-04-23T07:10:43.261Z,8.77
2018-04-23T07:13:13.086Z,8.97
2018-04-23T07:15:45.175Z,9.73
2018-04-23T07:18:14.475Z,9.47
2018-04-23T07:33:53.125Z,10.07
2018-04-23T07:36:22.102Z,9.90
2018-04-23T07:39:05.777Z,9.90
2018-04-23T07:41:34.304Z,8.57
2018-04-23T07:44:03.250Z,9.50
2018-04-23T07:46:31.767Z,9.43
2018-04-23T07:49:01.073Z,9.50
2018-04-23T07:51:30.382Z,8.97
2018-04-23T07:54:05.109Z,9.40
2018-04-23T07:56:34.380Z,10.50
2018-04-23T07:59:06.718Z,9.10
2018-04-23T08:01:36.547Z,11.90
2018-04-23T08:04:08.929Z,10.60
2018-04-23T08:06:38.645Z,10.30
2018-04-23T08:09:12.497Z,10.13
2018-04-23T08:11:41.086Z,10.60
2018-04-23T08:14:15.272Z,10.70
2018-04-23T08:16:47.398Z,12.13
2018-04-23T08:19:17.055Z,11.33
2018-04-23T08:21:45.589Z,12.47
2018-04-23T08:24:27.602Z,12.50
2018-04-23T08:26:57.603Z,13.40
2018-04-23T08:29:26.919Z,13.63
2018-04-23T08:31:56.530Z,13.00
2018-04-23T08:34:26.961Z,12.23
2018-04-23T08:36:55.532Z,12.37
2018-04-23T08:39:24.863Z,12.03
2018-04-23T08:41:53.903Z,11.10
2018-04-23T08:44:27.251Z,11.00
2018-04-23T08:46:56.552Z,11.13
2018-04-23T08:49:30.443Z,10.83
2018-04-23T08:51:59.793Z,11.17
2018-04-23T08:54:32.033Z,10.30
2018-04-23T08:57:02.428Z,9.43
2018-04-23T08:59:33.678Z,10.57
2018-04-23T09:02:02.962Z,10.73
2018-04-23T09:04:35.258Z,11.10
2018-04-23T09:07:04.604Z,10.10
2018-04-23T09:09:46.032Z,11.47
2018-04-23T09:12:15.352Z,11.77
2018-04-23T09:14:44.720Z,10.90
2018-04-23T09:17:13.245Z,10.70
2018-04-23T09:19:43.233Z,10.70
2018-04-23T09:22:13.376Z,10.60
2018-04-23T09:24:55.418Z,10.93
2018-04-23T09:27:23.938Z,10.77
2018-04-23T09:29:53.236Z,10.57
2018-04-23T09:32:22.789Z,10.43
2018-04-23T09:34:52.339Z,11.70
2018-04-23T09:37:22.736Z,12.53
2018-04-23T09:39:52.887Z,14.17
2018-04-23T09:42:22.194Z,13.83
2018-04-23T09:44:54.653Z,12.53
2018-04-23T09:47:23.578Z,12.00
2018-04-23T09:50:05.677Z,13.77
2018-04-23T09:52:35.382Z,12.60
2018-04-23T10:08:43.512Z,11.80
2018-04-23T10:11:12.787Z,10.70
2018-04-23T10:13:41.705Z,10.93
2018-04-23T10:16:12.227Z,10.10
2018-04-23T10:18:40.878Z,10.23
2018-04-23T10:21:14.596Z,10.53
2018-04-23T10:23:44.257Z,10.13
2018-04-23T10:26:15.989Z,9.03
2018-04-23T10:28:44.795Z,9.47
2018-04-23T10:31:18.070Z,9.53
2018-04-23T10:33:47.625Z,7.03
2018-04-23T10:36:21.020Z,6.90
2018-04-23T10:38:51.145Z,7.73
2018-04-23T10:41:22.269Z,7.67
2018-04-23T10:43:51.926Z,7.13
2018-04-23T10:46:24.588Z,6.13
2018-04-23T10:48:53.815Z,6.67
2018-04-23T10:51:28.078Z,6.43
2018-04-23T10:53:57.588Z,5.70
2018-04-23T10:56:30.392Z,7.57
2018-04-23T10:58:58.889Z,6.50
2018-04-23T11:01:31.678Z,4.93
2018-04-23T11:04:01.605Z,5.93
2018-04-23T11:06:35.457Z,6.07
2018-04-23T11:09:06.292Z,6.37
2018-04-23T11:11:37.203Z,6.93
2018-04-23T11:14:06.858Z,6.23
2018-04-23T11:16:42.635Z,6.50
2018-04-23T11:19:12.643Z,6.67
2018-04-23T11:21:43.086Z,6.47
2018-04-23T11:24:12.013Z,5.43
2018-04-23T11:26:44.660Z,6.23
2018-04-23T11:29:13.966Z,7.47
2018-04-23T11:31:47.977Z,6.90
2018-04-23T11:34:16.533Z,6.63
2018-04-23T11:36:49.844Z,7.10
2018-04-23T11:39:18.661Z,7.83
2018-04-23T11:41:51.365Z,7.27
2018-04-23T11:44:19.885Z,7.70
2018-04-23T11:46:52.796Z,6.27
2018-04-23T11:49:21.367Z,6.20
2018-04-23T11:51:49.881Z,5.50
2018-04-23T11:54:20.398Z,6.00
2018-04-23T11:56:48.900Z,6.10
2018-04-23T11:59:18.523Z,6.77
2018-04-23T12:01:47.264Z,6.20
2018-04-23T12:04:15.782Z,6.10
2018-04-23T12:06:45.061Z,6.67
2018-04-23T12:09:14.369Z,6.07
2018-04-23T12:11:44.429Z,5.80
2018-04-23T12:14:13.829Z,5.37
2018-04-23T12:16:43.456Z,5.20
2018-04-23T12:19:13.481Z,5.30
2018-04-23T12:21:42.050Z,5.33
2018-04-23T12:24:23.139Z,4.90
2018-04-23T12:26:51.694Z,5.37
2018-04-23T12:29:22.018Z,4.77
2018-04-23T12:31:50.542Z,5.27
2018-04-23T12:34:19.071Z,5.23
2018-04-23T12:36:48.610Z,5.83
2018-04-23T12:39:21.091Z,5.47
2018-04-23T12:41:50.801Z,5.60
2018-04-23T12:44:22.841Z,5.13
2018-04-23T12:46:52.375Z,5.63
2018-04-23T12:49:25.285Z,5.70
2018-04-23T12:51:55.585Z,5.60
2018-04-23T12:54:27.674Z,6.13
2018-04-23T12:56:56.996Z,5.70
2018-04-23T12:59:30.976Z,5.97
2018-04-23T13:01:59.527Z,5.43
2018-04-23T13:04:41.517Z,5.50
2018-04-23T13:07:10.346Z,4.73
2018-04-23T13:09:39.603Z,4.80
2018-04-23T13:12:08.501Z,5.20
2018-04-23T13:14:37.309Z,5.70
2018-04-23T13:17:05.864Z,5.57
2018-04-23T13:19:42.083Z,6.53
2018-04-23T13:22:11.904Z,6.37
2018-04-23T13:24:41.210Z,5.83
2018-04-23T13:27:09.754Z,5.37
2018-04-23T13:29:43.425Z,5.50
2018-04-23T13:32:13.257Z,5.60
2018-04-23T13:34:46.694Z,5.87
2018-04-23T13:37:16.270Z,5.37
2018-04-23T13:39:49.905Z,5.47
2018-04-23T13:42:19.285Z,6.70
2018-04-23T13:44:52.796Z,6.03
2018-04-23T13:47:21.336Z,5.20
2018-04-23T13:49:55.247Z,6.47
2018-04-23T13:52:24.165Z,5.67
2018-04-23T13:54:57.439Z,6.00
2018-04-23T13:57:26.263Z,6.23
2018-04-23T13:59:59.302Z,6.07
2018-04-23T14:02:29.076Z,7.27
2018-04-23T14:11:41.138Z,5.33
2018-04-23T14:14:10.489Z,7.30
2018-04-23T14:16:40.594Z,6.30
2018-04-23T14:19:10.847Z,6.20
2018-04-23T14:21:40.657Z,6.03
2018-04-23T14:24:12.777Z,5.80
2018-04-23T14:26:42.306Z,5.70
2018-04-23T14:29:24.155Z,6.03
2018-04-23T14:31:54.476Z,5.93
2018-04-23T14:34:23.377Z,6.07
2018-04-23T14:36:53.439Z,6.60
2018-04-23T14:39:23.346Z,6.27
2018-04-23T14:41:51.949Z,5.97
2018-04-23T14:44:22.503Z,5.60
2018-04-23T14:46:51.688Z,5.50
2018-04-23T14:49:24.849Z,6.00
2018-04-23T14:51:53.431Z,6.07
2018-04-23T14:54:25.555Z,5.87
2018-04-23T14:56:54.495Z,7.30
2018-04-23T14:59:28.037Z,6.30
2018-04-23T15:01:56.905Z,6.27
2018-04-23T15:04:29.446Z,5.50
2018-04-23T15:06:58.462Z,5.20
2018-04-23T15:09:34.061Z,5.20
2018-04-23T15:12:03.384Z,5.50
2018-04-23T15:14:34.408Z,5.83
2018-04-23T15:17:03.520Z,5.50
2018-04-23T15:19:44.882Z,6.17
2018-04-23T15:22:14.770Z,6.27
2018-04-23T15:24:45.396Z,6.00
2018-04-23T15:27:14.422Z,6.70
2018-04-23T15:29:44.805Z,6.37
2018-04-23T15:32:13.672Z,6.47
2018-04-23T15:34:43.220Z,6.63
2018-04-23T15:37:12.257Z,5.93
2018-04-23T15:39:45.001Z,6.77
2018-04-23T15:42:14.574Z,6.37
2018-04-23T15:44:49.465Z,5.57
2018-04-23T15:47:18.408Z,5.50
2018-04-23T15:49:51.933Z,5.20
2018-04-23T15:52:21.543Z,5.23
2018-04-23T15:54:53.844Z,5.63
2018-04-23T15:57:23.388Z,4.97
2018-04-23T15:59:57.045Z,5.20
2018-04-23T16:02:27.525Z,5.00
2018-04-23T16:04:59.164Z,4.13
2018-04-23T16:07:28.445Z,4.63
2018-04-23T16:10:09.941Z,4.70
2018-04-23T16:12:38.762Z,4.20
2018-04-23T16:15:07.312Z,4.30
2018-04-23T16:17:36.684Z,5.10
2018-04-23T16:20:06.824Z,4.10
2018-04-23T16:22:36.143Z,4.67
2018-04-23T16:25:13.262Z,3.83
2018-04-23T16:27:42.517Z,3.83
2018-04-23T16:30:13.586Z,4.67
2018-04-23T16:32:43.606Z,4.77
2018-04-23T16:35:15.001Z,4.37
2018-04-23T16:37:44.573Z,5.30
2018-04-23T16:40:16.599Z,5.30
2018-04-23T16:42:47.137Z,4.63
2018-04-23T16:45:19.988Z,5.30
2018-04-23T16:47:48.536Z,4.13
2018-04-23T16:50:29.780Z,4.40
2018-04-23T16:52:59.818Z,4.80
2018-04-23T16:55:28.798Z,5.17
2018-04-23T16:57:57.641Z,4.90
2018-04-23T17:00:26.256Z,5.40
2018-04-23T17:02:54.868Z,6.00
2018-04-23T17:05:27.964Z,5.40
2018-04-23T17:07:57.496Z,5.00
2018-04-23T17:10:29.925Z,4.73
2018-04-23T17:12:58.732Z,4.83
2018-04-23T17:15:31.237Z,5.80
2018-04-23T17:17:59.789Z,5.27
2018-04-23T17:20:33.434Z,5.90
2018-04-23T17:23:02.437Z,5.63
2018-04-23T17:25:44.507Z,5.53
2018-04-23T17:28:14.126Z,5.40
2018-04-23T17:30:44.154Z,5.37
2018-04-23T17:33:17.396Z,5.40
2018-04-23T17:35:47.240Z,5.40
2018-04-23T17:38:15.757Z,5.33
2018-04-23T17:40:45.087Z,5.30
2018-04-23T17:43:14.633Z,5.33
2018-04-23T17:45:47.124Z,5.30
2018-04-23T17:48:16.101Z,4.80
2018-04-23T17:50:48.664Z,5.03
2018-04-23T17:53:19.893Z,4.47
2018-04-23T17:55:50.986Z,4.40
2018-04-23T17:58:20.592Z,3.93
2018-04-23T18:00:52.033Z,4.23
2018-04-23T18:03:22.982Z,3.77
2018-04-23T18:05:56.155Z,3.47
2018-04-23T18:08:25.805Z,4.43
2018-04-23T18:11:06.823Z,3.97
2018-04-23T18:13:35.829Z,3.93
2018-04-23T18:16:04.925Z,4.10
2018-04-23T18:18:34.518Z,3.23
2018-04-23T18:21:04.166Z,3.33
2018-04-23T18:23:33.796Z,3.90
2018-04-23T18:26:07.064Z,3.73
2018-04-23T18:28:36.635Z,3.80
2018-04-23T18:31:17.649Z,3.20
2018-04-23T18:33:46.868Z,3.67
2018-04-23T18:36:15.446Z,3.87
2018-04-23T18:38:44.027Z,3.23
2018-04-23T18:41:14.873Z,3.77
2018-04-23T18:43:43.771Z,3.40
2018-04-23T18:46:14.996Z,3.63
2018-04-23T18:48:43.525Z,3.27
2018-04-23T18:51:18.496Z,3.10
2018-04-23T18:53:47.308Z,3.20
2018-04-23T18:56:20.433Z,2.83
2018-04-23T18:58:49.805Z,3.50
2018-04-23T19:01:22.780Z,3.00
2018-04-23T19:03:52.489Z,3.60
2018-04-23T19:06:25.222Z,3.23
2018-04-23T19:08:53.755Z,3.13
2018-04-23T19:11:35.076Z,3.50
2018-04-23T19:14:04.394Z,3.10
2018-04-23T19:16:33.980Z,3.17
2018-04-23T19:19:05.417Z,3.70
2018-04-23T19:21:34.377Z,3.50
2018-04-23T19:24:04.151Z,3.40
2018-04-23T19:26:34.675Z,3.63
2018-04-23T19:29:04.760Z,3.90
2018-04-23T19:31:37.322Z,3.33
2018-04-23T19:34:06.563Z,3.40
2018-04-23T19:36:47.942Z,3.10
2018-04-23T19:39:16.737Z,3.90
2018-04-23T19:41:46.288Z,4.23
2018-04-23T19:44:15.317Z,4.60
2018-04-23T19:46:44.660Z,4.30
2018-04-23T19:49:14.160Z,4.20
2018-04-23T19:51:47.009Z,4.50
2018-04-23T19:54:16.081Z,3.73
2018-04-23T19:56:48.868Z,4.67
2018-04-23T19:59:17.519Z,4.90
2018-04-23T20:01:51.548Z,3.80
2018-04-23T20:04:20.174Z,4.13
2018-04-23T20:06:53.864Z,4.30
2018-04-23T20:09:23.818Z,4.33
2018-04-23T20:11:58.565Z,4.10
2018-04-23T20:14:28.626Z,3.70
2018-04-23T20:16:59.142Z,4.70
2018-04-23T20:19:28.798Z,3.97
2018-04-23T20:22:01.902Z,4.00
2018-04-23T20:24:31.925Z,3.47
2018-04-23T20:27:05.740Z,3.50
2018-04-23T20:29:34.516Z,3.97
2018-04-23T20:32:07.284Z,3.60
2018-04-23T20:34:36.562Z,4.17
2018-04-23T20:37:18.999Z,3.57
2018-04-23T20:39:48.706Z,4.40
2018-04-23T20:42:18.753Z,3.50
2018-04-23T20:44:47.308Z,3.77
2018-04-23T20:47:16.617Z,4.07
2018-04-23T20:49:46.990Z,4.00
2018-04-23T20:52:17.168Z,3.83
2018-04-23T20:54:45.711Z,3.17
2018-04-23T20:57:18.759Z,3.70
2018-04-23T20:59:47.313Z,3.33
2018-04-23T21:02:21.412Z,3.90
2018-04-23T21:04:50.794Z,4.00
2018-04-23T21:07:24.310Z,4.10
2018-04-23T21:09:54.277Z,4.10
2018-04-23T21:12:25.556Z,3.60
2018-04-23T21:14:54.430Z,3.83
2018-04-23T21:17:28.594Z,3.73
2018-04-23T21:19:57.529Z,3.77
2018-04-23T21:22:30.407Z,3.67
2018-04-23T21:24:59.635Z,4.10
2018-04-23T21:27:30.894Z,3.60
2018-04-23T21:29:59.422Z,4.20
2018-04-23T21:32:33.572Z,3.60
2018-04-23T21:35:03.431Z,3.80
2018-04-23T21:37:44.780Z,3.83
2018-04-23T21:40:14.114Z,3.40
2018-04-23T21:42:43.790Z,4.00
2018-04-23T21:45:14.072Z,3.40
2018-04-23T21:47:44.003Z,3.37
2018-04-23T21:50:12.709Z,3.30
2018-04-23T21:52:44.555Z,3.13
2018-04-23T21:55:15.025Z,3.70
2018-04-23T21:57:46.982Z,3.30
2018-04-23T22:00:16.556Z,3.83
2018-04-23T22:02:57.518Z,4.00
2018-04-23T22:05:27.211Z,4.00
2018-04-23T22:07:56.977Z,3.70
2018-04-23T22:10:27.272Z,3.53
2018-04-23T22:12:56.007Z,3.00
2018-04-23T22:15:24.575Z,3.43
2018-04-23T22:17:56.513Z,3.23
2018-04-23T22:20:25.925Z,3.60
2018-04-23T22:22:59.343Z,3.60
2018-04-23T22:25:28.965Z,3.50
2018-04-23T22:28:03.462Z,3.90
2018-04-23T22:30:33.057Z,3.80
2018-04-23T22:33:04.867Z,3.90
2018-04-23T22:35:34.430Z,4.07
2018-04-23T22:38:07.621Z,3.60
2018-04-23T22:40:37.705Z,3.73
2018-04-23T22:43:11.485Z,3.73
2018-04-23T22:45:40.085Z,3.40
2018-04-23T22:48:12.771Z,3.50
2018-04-23T22:50:41.572Z,3.80
2018-04-23T22:53:14.560Z,3.30
2018-04-23T22:55:43.969Z,3.27
2018-04-23T22:58:17.409Z,4.33
2018-04-23T23:00:45.959Z,3.30
2018-04-23T23:03:28.326Z,2.97
2018-04-23T23:05:57.194Z,3.00
2018-04-23T23:08:26.154Z,3.30
2018-04-23T23:10:55.764Z,3.47
2018-04-23T23:13:24.690Z,3.30
2018-04-23T23:15:53.960Z,3.57
2018-04-23T23:18:25.568Z,3.00
2018-04-23T23:20:54.080Z,2.90
2018-04-23T23:23:28.215Z,3.27
2018-04-23T23:25:58.259Z,3.77
2018-04-23T23:28:30.388Z,3.27
2018-04-23T23:31:00.150Z,3.30
2018-04-23T23:33:31.965Z,3.23
2018-04-23T23:36:02.670Z,2.60
2018-04-23T23:38:34.644Z,3.17
2018-04-23T23:41:04.504Z,3.17
2018-04-23T23:43:37.852Z,3.30
2018-04-23T23:46:07.153Z,2.83
2018-04-23T23:48:40.305Z,2.77
2018-04-23T23:51:09.149Z,2.93
2018-04-23T23:53:42.954Z,2.77
2018-04-23T23:56:12.281Z,3.07
2018-04-23T23:58:43.946Z,2.70
